createdAt,value
2018-06-03T00:01:11.328Z,75.86
2018-06-03T00:03:40.800Z,76.55
2018-06-03T00:06:10.221Z,76.73
2018-06-03T00:08:39.660Z,76.64
2018-06-03T00:11:09.076Z,76.79
2018-06-03T00:13:38.489Z,77.80
2018-06-03T00:16:07.942Z,77.15
2018-06-03T00:18:37.350Z,77.00
2018-06-03T00:21:23.791Z,76.85
2018-06-03T00:23:53.256Z,77.18
2018-06-03T00:26:22.749Z,77.74
2018-06-03T00:28:52.167Z,77.17
2018-06-03T00:31:21.596Z,77.89
2018-06-03T00:33:51.051Z,77.96
2018-06-03T00:36:37.269Z,77.33
2018-06-03T00:39:08.841Z,77.87
2018-06-03T00:41:38.323Z,77.77
2018-06-03T00:44:07.760Z,77.95
2018-06-03T00:46:37.182Z,77.14
2018-06-03T00:49:06.774Z,76.98
2018-06-03T00:51:36.216Z,77.66
2018-06-03T00:54:05.629Z,78.37
2018-06-03T00:57:42.285Z,77.96
2018-06-03T01:00:11.874Z,77.76
2018-06-03T01:02:41.316Z,77.86
2018-06-03T01:05:10.753Z,77.94
2018-06-03T01:07:40.152Z,78.14
2018-06-03T01:10:09.576Z,77.48
2018-06-03T01:12:39.008Z,77.27
2018-06-03T01:15:08.551Z,78.07
2018-06-03T01:17:37.971Z,77.53
2018-06-03T01:20:07.355Z,77.96
2018-06-03T01:22:36.946Z,77.95
2018-06-03T01:25:06.368Z,78.36
2018-06-03T01:27:35.809Z,77.68
2018-06-03T01:30:05.325Z,77.46
2018-06-03T01:32:34.813Z,77.81
2018-06-03T01:35:04.257Z,78.14
2018-06-03T01:37:33.704Z,77.63
2018-06-03T01:40:03.149Z,77.98
2018-06-03T01:42:32.569Z,77.77
2018-06-03T01:45:01.990Z,78.54
2018-06-03T01:47:31.409Z,78.25
2018-06-03T01:50:00.903Z,78.44
2018-06-03T01:52:30.319Z,78.29
2018-06-03T01:54:59.731Z,78.70
2018-06-03T01:57:29.112Z,78.73
2018-06-03T01:59:58.562Z,78.14
2018-06-03T02:02:27.957Z,77.83
2018-06-03T02:04:57.400Z,78.52
2018-06-03T02:07:26.855Z,78.92
2018-06-03T02:09:56.296Z,78.72
2018-06-03T02:12:25.714Z,78.04
2018-06-03T02:14:55.139Z,78.28
2018-06-03T02:17:24.581Z,78.14
2018-06-03T02:19:54.030Z,78.12
2018-06-03T02:22:23.480Z,77.89
2018-06-03T02:24:52.897Z,77.16
2018-06-03T02:27:22.350Z,77.83
2018-06-03T02:29:51.785Z,77.56
2018-06-03T02:32:21.228Z,77.46
2018-06-03T02:34:51.721Z,77.22
2018-06-03T02:37:21.179Z,78.03
2018-06-03T02:39:50.642Z,77.71
2018-06-03T02:42:20.048Z,77.95
2018-06-03T02:44:49.506Z,77.52
2018-06-03T02:47:18.921Z,78.13
2018-06-03T02:49:48.334Z,77.58
2018-06-03T02:52:17.772Z,77.89
2018-06-03T02:54:47.201Z,78.19
2018-06-03T02:57:16.637Z,77.35
2018-06-03T02:59:46.051Z,77.85
2018-06-03T03:02:15.453Z,77.65
2018-06-03T03:04:44.864Z,77.30
2018-06-03T03:07:14.276Z,76.83
2018-06-03T03:09:43.701Z,76.61
2018-06-03T03:12:13.275Z,77.10
2018-06-03T03:14:42.712Z,77.47
2018-06-03T03:17:12.252Z,77.05
2018-06-03T03:19:41.728Z,77.74
2018-06-03T03:22:11.128Z,77.18
2018-06-03T03:24:40.544Z,78.53
2018-06-03T03:27:09.971Z,78.21
2018-06-03T03:29:39.387Z,78.27
2018-06-03T03:32:08.848Z,77.11
2018-06-03T03:34:38.285Z,78.10
2018-06-03T03:37:07.689Z,77.68
2018-06-03T03:39:37.105Z,78.21
2018-06-03T03:42:06.527Z,78.60
2018-06-03T03:44:35.938Z,77.52
2018-06-03T03:47:05.385Z,77.16
2018-06-03T03:49:34.800Z,77.34
2018-06-03T03:52:04.211Z,77.57
2018-06-03T03:54:33.623Z,77.83
2018-06-03T03:57:03.141Z,77.97
2018-06-03T03:59:32.267Z,77.84
2018-06-03T04:02:01.837Z,78.33
2018-06-03T04:04:31.233Z,78.35
2018-06-03T04:07:00.663Z,78.40
2018-06-03T04:09:30.108Z,78.35
2018-06-03T04:11:59.503Z,78.19
2018-06-03T04:14:28.949Z,77.79
2018-06-03T04:16:58.463Z,77.59
2018-06-03T04:19:27.864Z,77.11
2018-06-03T04:21:57.323Z,76.82
2018-06-03T04:24:26.722Z,76.89
2018-06-03T04:26:56.121Z,76.46
2018-06-03T04:29:25.545Z,76.57
2018-06-03T04:31:55.012Z,76.81
2018-06-03T04:34:24.433Z,76.91
2018-06-03T04:36:53.869Z,76.54
2018-06-03T04:39:23.289Z,76.08
2018-06-03T04:41:52.744Z,75.69
2018-06-03T04:44:22.200Z,75.20
2018-06-03T04:46:51.634Z,76.64
2018-06-03T04:49:21.095Z,75.82
2018-06-03T04:51:50.523Z,75.78
2018-06-03T04:54:19.947Z,74.79
2018-06-03T04:56:49.369Z,75.55
2018-06-03T04:59:18.845Z,75.25
2018-06-03T05:01:48.393Z,75.25
2018-06-03T05:04:17.862Z,74.86
2018-06-03T05:06:47.276Z,74.45
2018-06-03T05:09:17.488Z,74.11
2018-06-03T05:11:46.874Z,73.04
2018-06-03T05:14:16.282Z,73.13
2018-06-03T05:16:45.902Z,71.60
2018-06-03T05:19:15.400Z,71.60
2018-06-03T05:21:44.850Z,70.93
2018-06-03T05:24:14.248Z,70.79
2018-06-03T05:26:43.708Z,71.52
2018-06-03T05:29:13.134Z,70.42
2018-06-03T05:31:42.550Z,70.59
2018-06-03T05:34:11.948Z,70.38
2018-06-03T05:36:41.419Z,69.22
2018-06-03T05:39:10.944Z,68.88
2018-06-03T05:41:40.385Z,68.73
2018-06-03T05:44:09.832Z,68.16
2018-06-03T05:46:39.215Z,67.78
2018-06-03T05:49:08.647Z,67.99
2018-06-03T05:51:38.043Z,68.88
2018-06-03T05:54:07.906Z,67.95
2018-06-03T05:56:37.310Z,68.17
2018-06-03T05:59:06.745Z,68.11
2018-06-03T06:01:36.158Z,67.61
2018-06-03T06:04:05.599Z,68.36
2018-06-03T06:06:35.038Z,67.78
2018-06-03T06:09:06.446Z,67.41
2018-06-03T06:11:35.834Z,66.70
2018-06-03T06:14:05.261Z,66.65
2018-06-03T06:16:34.727Z,66.32
2018-06-03T06:19:04.187Z,66.74
2018-06-03T06:21:33.608Z,65.99
2018-06-03T06:24:03.159Z,66.19
2018-06-03T06:26:32.616Z,65.27
2018-06-03T06:29:02.242Z,65.14
2018-06-03T06:31:31.680Z,65.50
2018-06-03T06:34:01.167Z,64.92
2018-06-03T06:36:31.824Z,64.40
2018-06-03T06:39:02.141Z,64.08
2018-06-03T06:41:31.665Z,63.54
2018-06-03T06:44:01.269Z,62.24
2018-06-03T06:46:30.671Z,63.25
2018-06-03T06:49:00.834Z,63.90
2018-06-03T06:51:30.255Z,62.87
2018-06-03T06:54:00.511Z,63.49
2018-06-03T06:56:30.036Z,62.58
2018-06-03T06:58:59.453Z,62.46
2018-06-03T07:01:28.883Z,62.90
2018-06-03T07:03:58.295Z,61.90
2018-06-03T07:06:27.752Z,61.21
2018-06-03T07:08:57.162Z,62.10
2018-06-03T07:11:26.612Z,63.53
2018-06-03T07:13:56.092Z,61.66
2018-06-03T07:16:25.542Z,61.55
2018-06-03T07:18:54.986Z,61.69
2018-06-03T07:21:24.451Z,61.96
2018-06-03T07:23:54.072Z,60.53
2018-06-03T07:26:23.568Z,60.41
2018-06-03T07:28:52.992Z,59.12
2018-06-03T07:31:22.522Z,59.58
2018-06-03T07:33:51.959Z,58.85
2018-06-03T07:36:22.649Z,60.84
2018-06-03T07:38:52.080Z,59.54
2018-06-03T07:41:21.510Z,57.67
2018-06-03T07:43:51.051Z,58.28
2018-06-03T07:46:20.521Z,58.28
2018-06-03T07:48:49.938Z,57.91
2018-06-03T07:51:19.389Z,57.93
2018-06-03T07:53:48.811Z,57.63
2018-06-03T07:56:18.243Z,57.36
2018-06-03T07:58:47.669Z,55.26
2018-06-03T08:01:17.104Z,56.75
2018-06-03T08:03:46.565Z,56.56
2018-06-03T08:06:15.967Z,56.05
2018-06-03T08:08:45.424Z,54.85
2018-06-03T08:11:14.873Z,55.87
2018-06-03T08:13:44.353Z,56.73
2018-06-03T08:16:13.788Z,55.96
2018-06-03T08:18:43.227Z,56.85
2018-06-03T08:21:12.665Z,56.18
2018-06-03T08:23:42.457Z,56.44
2018-06-03T08:26:12.059Z,55.26
2018-06-03T08:28:41.479Z,55.54
2018-06-03T08:31:10.927Z,55.32
2018-06-03T08:33:40.339Z,54.37
2018-06-03T08:36:09.788Z,53.68
2018-06-03T08:38:39.300Z,52.52
2018-06-03T08:41:08.745Z,53.98
2018-06-03T08:43:38.210Z,54.75
2018-06-03T08:46:07.646Z,54.24
2018-06-03T08:48:37.140Z,52.30
2018-06-03T08:51:06.559Z,51.03
2018-06-03T08:53:35.995Z,51.59
2018-06-03T08:56:05.418Z,52.27
2018-06-03T08:58:34.855Z,51.61
2018-06-03T09:01:04.268Z,52.99
2018-06-03T09:03:33.716Z,53.81
2018-06-03T09:06:03.125Z,52.20
2018-06-03T09:08:32.611Z,52.20
2018-06-03T09:11:02.112Z,50.98
2018-06-03T09:13:31.582Z,52.08
2018-06-03T09:16:01.054Z,49.96
2018-06-03T09:18:30.459Z,49.82
2018-06-03T09:20:59.930Z,50.33
2018-06-03T09:23:29.369Z,50.82
2018-06-03T09:25:58.817Z,49.92
2018-06-03T09:28:28.257Z,50.54
2018-06-03T09:31:02.973Z,50.09
2018-06-03T09:33:32.401Z,48.81
2018-06-03T09:36:01.851Z,50.17
2018-06-03T09:38:31.309Z,49.81
2018-06-03T09:41:00.748Z,48.91
2018-06-03T09:43:30.183Z,47.32
2018-06-03T09:45:59.619Z,46.85
2018-06-03T09:48:29.094Z,45.04
2018-06-03T09:50:58.825Z,44.40
2018-06-03T09:53:28.338Z,44.53
2018-06-03T09:55:57.850Z,41.89
2018-06-03T09:58:27.284Z,42.88
2018-06-03T10:00:56.736Z,43.26
2018-06-03T10:03:26.183Z,42.12
2018-06-03T10:05:55.656Z,41.35
2018-06-03T10:08:25.102Z,41.25
2018-06-03T10:10:54.550Z,42.05
2018-06-03T10:13:23.971Z,41.94
2018-06-03T10:15:53.422Z,41.67
2018-06-03T10:18:22.910Z,41.51
2018-06-03T10:20:52.362Z,41.47
2018-06-03T10:23:21.800Z,41.41
2018-06-03T10:25:51.285Z,42.03
2018-06-03T10:28:20.791Z,40.01
2018-06-03T10:30:50.297Z,38.08
2018-06-03T10:33:19.783Z,37.95
2018-06-03T10:35:49.281Z,37.24
2018-06-03T10:38:18.909Z,39.19
2018-06-03T10:40:48.373Z,37.44
2018-06-03T10:43:17.835Z,35.27
2018-06-03T10:45:47.465Z,33.95
2018-06-03T10:48:17.062Z,32.42
2018-06-03T10:50:46.608Z,32.03
2018-06-03T10:53:16.210Z,29.84
2018-06-03T10:55:45.697Z,29.31
2018-06-03T10:58:15.219Z,30.14
2018-06-03T11:00:44.767Z,29.99
2018-06-03T11:03:14.316Z,28.15
2018-06-03T11:05:43.831Z,26.79
2018-06-03T11:08:13.313Z,26.38
2018-06-03T11:10:42.822Z,26.11
2018-06-03T11:13:12.249Z,25.92
2018-06-03T11:15:41.660Z,26.71
2018-06-03T11:18:11.110Z,25.02
2018-06-03T11:20:40.592Z,24.38
2018-06-03T11:23:10.088Z,24.70
2018-06-03T11:25:39.537Z,25.60
2018-06-03T11:28:08.992Z,25.96
2018-06-03T11:30:38.451Z,24.59
2018-06-03T11:33:07.858Z,23.95
2018-06-03T11:35:37.312Z,22.13
2018-06-03T11:38:07.450Z,23.62
2018-06-03T11:40:36.915Z,23.89
2018-06-03T11:43:06.347Z,22.32
2018-06-03T11:45:35.844Z,24.35
2018-06-03T11:48:05.275Z,23.01
2018-06-03T11:50:34.771Z,21.98
2018-06-03T11:53:04.257Z,22.12
2018-06-03T11:55:33.639Z,22.44
2018-06-03T11:58:51.897Z,22.79
2018-06-03T12:01:21.342Z,25.62
2018-06-03T12:03:50.772Z,27.44
2018-06-03T12:06:20.214Z,30.09
2018-06-03T12:08:49.688Z,30.10
2018-06-03T12:11:18.814Z,26.50
2018-06-03T12:13:48.249Z,23.38
2018-06-03T12:16:17.652Z,24.08
2018-06-03T12:18:47.121Z,22.96
2018-06-03T12:21:16.559Z,24.48
2018-06-03T12:23:45.985Z,22.31
2018-06-03T12:26:15.420Z,23.46
2018-06-03T12:28:44.919Z,21.91
2018-06-03T12:31:14.327Z,22.10
2018-06-03T12:33:43.784Z,23.32
2018-06-03T12:36:13.257Z,24.24
2018-06-03T12:38:42.715Z,22.19
2018-06-03T12:41:12.126Z,22.94
2018-06-03T12:43:41.593Z,23.21
2018-06-03T12:46:11.044Z,22.88
2018-06-03T12:48:40.456Z,26.04
2018-06-03T12:51:09.867Z,29.08
2018-06-03T12:53:39.303Z,30.66
2018-06-03T12:56:08.785Z,32.12
2018-06-03T12:58:38.207Z,32.13
2018-06-03T13:01:07.711Z,32.87
2018-06-03T13:03:37.112Z,33.51
2018-06-03T13:06:06.567Z,32.74
2018-06-03T13:08:35.975Z,34.57
2018-06-03T13:11:05.394Z,35.96
2018-06-03T13:13:34.818Z,35.52
2018-06-03T13:16:04.249Z,31.91
2018-06-03T13:18:33.689Z,31.97
2018-06-03T13:21:03.089Z,33.96
2018-06-03T13:23:32.513Z,36.36
2018-06-03T13:26:01.978Z,33.49
2018-06-03T13:28:31.468Z,32.82
2018-06-03T13:31:00.907Z,32.05
2018-06-03T13:33:30.327Z,33.88
2018-06-03T13:35:59.805Z,35.65
2018-06-03T13:38:29.240Z,33.31
2018-06-03T13:40:58.702Z,33.32
2018-06-03T13:43:28.116Z,30.31
2018-06-03T13:45:57.540Z,29.02
2018-06-03T13:48:26.695Z,27.80
2018-06-03T13:50:56.129Z,25.96
2018-06-03T13:53:25.578Z,25.49
2018-06-03T13:55:55.030Z,25.29
2018-06-03T13:58:24.450Z,28.33
2018-06-03T14:00:53.877Z,25.98
2018-06-03T14:03:23.306Z,26.09
2018-06-03T14:05:52.772Z,26.29
2018-06-03T14:08:22.194Z,23.38
2018-06-03T14:10:51.601Z,22.99
2018-06-03T14:13:21.069Z,23.15
2018-06-03T14:15:50.501Z,23.02
2018-06-03T14:18:19.923Z,20.95
2018-06-03T14:20:49.403Z,21.15
2018-06-03T14:23:18.560Z,20.76
2018-06-03T14:25:47.948Z,20.64
2018-06-03T14:28:17.350Z,18.67
2018-06-03T14:30:46.784Z,20.05
2018-06-03T14:33:16.219Z,19.95
2018-06-03T14:35:45.660Z,19.69
2018-06-03T14:38:15.073Z,21.09
2018-06-03T14:40:44.515Z,20.91
2018-06-03T14:43:13.949Z,20.70
2018-06-03T14:45:43.375Z,20.75
2018-06-03T14:48:12.831Z,19.27
2018-06-03T14:50:42.272Z,18.68
2018-06-03T14:53:11.724Z,21.10
2018-06-03T14:55:41.179Z,22.53
2018-06-03T14:58:10.621Z,25.08
2018-06-03T15:00:40.002Z,20.30
2018-06-03T15:03:09.434Z,19.82
2018-06-03T15:05:38.846Z,19.13
2018-06-03T15:08:08.320Z,18.03
2018-06-03T15:10:37.749Z,17.63
2018-06-03T15:13:07.170Z,18.50
2018-06-03T15:15:36.688Z,19.71
2018-06-03T15:18:06.133Z,19.37
2018-06-03T15:20:35.562Z,19.07
2018-06-03T15:23:05.099Z,18.85
2018-06-03T15:25:34.541Z,16.24
2018-06-03T15:28:03.985Z,16.91
2018-06-03T15:30:33.398Z,20.10
2018-06-03T15:33:02.825Z,20.73
2018-06-03T15:35:32.230Z,23.32
2018-06-03T15:38:01.649Z,21.12
2018-06-03T15:40:31.134Z,21.50
2018-06-03T15:43:00.556Z,21.15
2018-06-03T15:45:29.998Z,20.59
2018-06-03T15:47:59.455Z,20.36
2018-06-03T15:50:29.015Z,20.71
2018-06-03T15:52:58.458Z,21.19
2018-06-03T15:55:27.887Z,21.07
2018-06-03T15:57:57.322Z,20.05
2018-06-03T16:00:26.729Z,19.31
2018-06-03T16:02:56.162Z,20.64
2018-06-03T16:05:25.579Z,23.60
2018-06-03T16:07:55.060Z,25.48
2018-06-03T16:10:24.565Z,24.61
2018-06-03T16:12:53.980Z,24.77
2018-06-03T16:15:23.424Z,22.73
2018-06-03T16:17:52.847Z,22.85
2018-06-03T16:20:22.259Z,21.66
2018-06-03T16:22:51.701Z,22.29
2018-06-03T16:25:21.126Z,22.61
2018-06-03T16:27:50.615Z,22.63
2018-06-03T16:30:19.997Z,22.70
2018-06-03T16:32:49.414Z,23.52
2018-06-03T16:35:18.834Z,23.39
2018-06-03T16:37:47.987Z,24.53
2018-06-03T16:40:17.415Z,22.62
2018-06-03T16:42:46.831Z,25.22
2018-06-03T16:45:16.292Z,24.81
2018-06-03T16:47:45.719Z,22.73
2018-06-03T16:50:15.168Z,24.97
2018-06-03T16:52:44.624Z,25.11
2018-06-03T16:55:14.062Z,26.53
2018-06-03T16:57:43.459Z,25.00
2018-06-03T17:00:12.884Z,25.56
2018-06-03T17:02:42.315Z,27.90
2018-06-03T17:05:11.715Z,28.52
2018-06-03T17:07:41.117Z,28.56
2018-06-03T17:10:10.536Z,28.45
2018-06-03T17:12:39.991Z,31.14
2018-06-03T17:15:09.409Z,32.06
2018-06-03T17:17:38.909Z,31.61
2018-06-03T17:20:08.365Z,32.67
2018-06-03T17:22:37.818Z,32.94
2018-06-03T17:25:07.234Z,34.12
2018-06-03T17:27:36.671Z,33.80
2018-06-03T17:30:06.249Z,34.64
2018-06-03T17:32:35.667Z,36.27
2018-06-03T17:35:05.091Z,36.09
2018-06-03T17:37:34.505Z,37.28
2018-06-03T17:40:04.076Z,37.13
2018-06-03T17:42:33.493Z,38.98
2018-06-03T17:45:02.936Z,38.00
2018-06-03T17:47:32.564Z,37.61
2018-06-03T17:50:02.035Z,37.61
2018-06-03T17:52:31.476Z,38.53
2018-06-03T17:55:00.886Z,37.45
2018-06-03T17:57:30.291Z,38.81
2018-06-03T17:59:59.682Z,38.51
2018-06-03T18:02:29.091Z,38.86
2018-06-03T18:04:58.244Z,39.48
2018-06-03T18:07:27.734Z,40.13
2018-06-03T18:09:57.148Z,39.08
2018-06-03T18:12:26.586Z,39.13
2018-06-03T18:14:56.027Z,39.27
2018-06-03T18:17:25.434Z,42.42
2018-06-03T18:19:54.876Z,42.25
2018-06-03T18:22:24.364Z,42.10
2018-06-03T18:24:53.783Z,41.83
2018-06-03T18:27:23.213Z,43.12
2018-06-03T18:29:52.680Z,42.01
2018-06-03T18:32:22.252Z,44.30
2018-06-03T18:34:51.584Z,43.88
2018-06-03T18:37:21.003Z,43.53
2018-06-03T18:39:50.444Z,44.66
2018-06-03T18:42:20.097Z,45.41
2018-06-03T18:44:49.506Z,45.49
2018-06-03T18:47:18.930Z,44.77
2018-06-03T18:49:48.400Z,45.43
2018-06-03T18:52:17.847Z,45.75
2018-06-03T18:54:47.339Z,46.93
2018-06-03T18:57:16.758Z,45.72
2018-06-03T18:59:46.283Z,47.38
2018-06-03T19:02:15.749Z,47.26
2018-06-03T19:04:45.172Z,46.38
2018-06-03T19:07:14.602Z,47.24
2018-06-03T19:09:46.505Z,48.43
2018-06-03T19:12:21.356Z,48.20
2018-06-03T19:14:52.004Z,48.90
2018-06-03T19:17:25.242Z,49.60
2018-06-03T19:19:55.580Z,49.03
2018-06-03T19:22:25.921Z,49.65
2018-06-03T19:24:55.376Z,50.04
2018-06-03T19:27:24.885Z,51.52
2018-06-03T19:29:54.314Z,52.17
2018-06-03T19:32:23.716Z,51.70
2018-06-03T19:34:53.130Z,51.75
2018-06-03T19:37:22.523Z,52.25
2018-06-03T19:39:51.949Z,52.22
2018-06-03T19:42:21.490Z,52.90
2018-06-03T19:44:51.027Z,52.54
2018-06-03T19:47:20.468Z,53.75
2018-06-03T19:49:49.904Z,53.64
2018-06-03T19:52:19.417Z,54.30
2018-06-03T19:54:49.522Z,53.81
2018-06-03T19:57:18.948Z,55.49
2018-06-03T19:59:48.425Z,54.99
2018-06-03T20:02:17.811Z,56.13
2018-06-03T20:04:47.233Z,55.53
2018-06-03T20:07:16.656Z,56.05
2018-06-03T20:09:46.100Z,55.76
2018-06-03T20:12:15.569Z,55.94
2018-06-03T20:14:45.005Z,57.85
2018-06-03T20:17:14.432Z,56.62
2018-06-03T20:19:43.984Z,56.93
2018-06-03T20:22:13.550Z,57.34
2018-06-03T20:24:42.945Z,57.42
2018-06-03T20:27:12.363Z,57.92
2018-06-03T20:29:41.934Z,58.19
2018-06-03T20:32:11.569Z,58.34
2018-06-03T20:34:41.018Z,58.52
2018-06-03T20:37:10.460Z,58.47
2018-06-03T20:39:40.085Z,58.86
2018-06-03T20:42:09.513Z,60.11
2018-06-03T20:44:39.120Z,59.79
2018-06-03T20:47:08.590Z,58.89
2018-06-03T20:49:38.059Z,59.08
2018-06-03T20:52:07.498Z,60.01
2018-06-03T20:54:41.935Z,59.91
2018-06-03T20:57:11.486Z,60.93
2018-06-03T20:59:40.996Z,61.06
2018-06-03T21:02:11.409Z,60.12
2018-06-03T21:04:40.905Z,60.43
2018-06-03T21:07:10.324Z,60.73
2018-06-03T21:09:39.816Z,61.20
2018-06-03T21:12:09.293Z,62.44
2018-06-03T21:14:38.702Z,62.11
2018-06-03T21:17:08.141Z,61.55
2018-06-03T21:19:37.559Z,62.77
2018-06-03T21:22:06.997Z,62.38
2018-06-03T21:24:36.472Z,62.83
2018-06-03T21:27:05.952Z,62.71
2018-06-03T21:29:35.431Z,63.18
2018-06-03T21:32:04.944Z,63.82
2018-06-03T21:34:34.388Z,63.71
2018-06-03T21:37:03.855Z,63.66
2018-06-03T21:39:33.351Z,64.93
2018-06-03T21:42:02.831Z,64.43
2018-06-03T21:44:32.279Z,64.73
2018-06-03T21:47:01.734Z,64.60
2018-06-03T21:49:31.231Z,65.16
2018-06-03T21:52:00.647Z,64.28
2018-06-03T21:54:30.078Z,64.81
2018-06-03T21:56:59.530Z,65.18
2018-06-03T21:59:28.989Z,64.80
2018-06-03T22:01:58.458Z,66.54
2018-06-03T22:04:27.915Z,66.37
2018-06-03T22:06:57.415Z,65.69
2018-06-03T22:09:26.871Z,66.08
2018-06-03T22:11:56.307Z,66.45
2018-06-03T22:14:25.768Z,67.40
2018-06-03T22:16:55.236Z,67.04
2018-06-03T22:19:24.671Z,67.19
2018-06-03T22:21:54.106Z,67.71
2018-06-03T22:24:23.509Z,67.67
2018-06-03T22:26:52.956Z,67.24
2018-06-03T22:29:22.419Z,67.52
2018-06-03T22:31:51.852Z,67.33
2018-06-03T22:34:21.286Z,67.40
2018-06-03T22:36:50.746Z,67.44
2018-06-03T22:39:20.231Z,68.10
2018-06-03T22:41:49.611Z,68.28
2018-06-03T22:44:19.091Z,68.38
2018-06-03T22:46:48.527Z,68.08
2018-06-03T22:49:17.700Z,68.17
2018-06-03T22:51:47.155Z,68.29
2018-06-03T22:54:16.626Z,67.98
2018-06-03T22:58:01.349Z,69.58
2018-06-03T23:00:33.678Z,69.41
2018-06-03T23:03:08.323Z,70.28
2018-06-03T23:05:37.764Z,69.06
2018-06-03T23:08:07.245Z,68.48
2018-06-03T23:10:36.718Z,69.49
2018-06-03T23:13:06.371Z,69.84
2018-06-03T23:15:35.826Z,69.82
2018-06-03T23:18:05.281Z,69.37
2018-06-03T23:20:34.710Z,69.91
2018-06-03T23:23:04.195Z,70.69
2018-06-03T23:25:33.691Z,69.29
2018-06-03T23:28:03.137Z,68.96
2018-06-03T23:30:32.800Z,69.41
2018-06-03T23:33:02.224Z,69.56
2018-06-03T23:35:31.682Z,70.87
2018-06-03T23:38:01.135Z,70.24
2018-06-03T23:40:30.603Z,70.77
2018-06-03T23:43:00.001Z,69.71
2018-06-03T23:45:29.403Z,70.50
2018-06-03T23:47:58.843Z,70.08
2018-06-03T23:50:28.311Z,70.87
2018-06-03T23:52:57.761Z,70.56
2018-06-03T23:55:27.213Z,70.55
2018-06-03T23:57:56.653Z,71.33
